sensor_id;sensor_type;location;lat;lon;timestamp;P1;durP1;ratioP1;P2;durP2;ratioP2
6679;SDS011;3376;42.664;23.346;2022-08-25T00:00:20;15.17;;;10.00;;
6679;SDS011;3376;42.664;23.346;2022-08-25T00:02:47;15.80;;;9.63;;
6679;SDS011;3376;42.664;23.346;2022-08-25T00:05:16;22.47;;;9.67;;
6679;SDS011;3376;42.664;23.346;2022-08-25T00:07:42;18.03;;;10.50;;
6679;SDS011;3376;42.664;23.346;2022-08-25T00:10:09;16.63;;;9.83;;
6679;SDS011;3376;42.664;23.346;2022-08-25T00:12:36;17.47;;;10.27;;
6679;SDS011;3376;42.664;23.346;2022-08-25T00:15:04;15.70;;;8.97;;
6679;SDS011;3376;42.664;23.346;2022-08-25T00:17:33;9.77;;;8.87;;
6679;SDS011;3376;42.664;23.346;2022-08-25T00:20:00;11.80;;;10.00;;
6679;SDS011;3376;42.664;23.346;2022-08-25T00:22:28;12.67;;;9.87;;
6679;SDS011;3376;42.664;23.346;2022-08-25T00:24:55;18.80;;;10.23;;
6679;SDS011;3376;42.664;23.346;2022-08-25T00:27:22;13.90;;;9.07;;
6679;SDS011;3376;42.664;23.346;2022-08-25T00:29:50;22.43;;;10.03;;
6679;SDS011;3376;42.664;23.346;2022-08-25T00:32:16;14.77;;;9.70;;
6679;SDS011;3376;42.664;23.346;2022-08-25T00:34:43;18.43;;;9.03;;
6679;SDS011;3376;42.664;23.346;2022-08-25T00:37:11;10.97;;;9.37;;
6679;SDS011;3376;42.664;23.346;2022-08-25T00:39:39;17.63;;;9.50;;
6679;SDS011;3376;42.664;23.346;2022-08-25T00:42:06;13.83;;;9.30;;
6679;SDS011;3376;42.664;23.346;2022-08-25T00:44:34;18.40;;;9.80;;
6679;SDS011;3376;42.664;23.346;2022-08-25T00:47:02;18.20;;;9.47;;
6679;SDS011;3376;42.664;23.346;2022-08-25T00:49:32;16.57;;;10.57;;
6679;SDS011;3376;42.664;23.346;2022-08-25T00:52:03;19.80;;;10.00;;
6679;SDS011;3376;42.664;23.346;2022-08-25T00:54:35;15.30;;;10.33;;
6679;SDS011;3376;42.664;23.346;2022-08-25T00:57:08;13.80;;;9.87;;
6679;SDS011;3376;42.664;23.346;2022-08-25T00:59:38;23.43;;;9.93;;
6679;SDS011;3376;42.664;23.346;2022-08-25T01:02:05;12.50;;;9.83;;
6679;SDS011;3376;42.664;23.346;2022-08-25T01:04:33;10.27;;;9.23;;
6679;SDS011;3376;42.664;23.346;2022-08-25T01:07:02;15.33;;;9.83;;
6679;SDS011;3376;42.664;23.346;2022-08-25T01:09:31;15.07;;;10.03;;
6679;SDS011;3376;42.664;23.346;2022-08-25T01:11:58;10.93;;;9.43;;
6679;SDS011;3376;42.664;23.346;2022-08-25T01:14:27;14.10;;;9.93;;
6679;SDS011;3376;42.664;23.346;2022-08-25T01:16:56;12.83;;;9.40;;
6679;SDS011;3376;42.664;23.346;2022-08-25T01:19:24;19.03;;;10.03;;
6679;SDS011;3376;42.664;23.346;2022-08-25T01:21:55;10.63;;;9.53;;
6679;SDS011;3376;42.664;23.346;2022-08-25T01:24:24;13.33;;;9.33;;
6679;SDS011;3376;42.664;23.346;2022-08-25T01:26:56;12.23;;;8.93;;
6679;SDS011;3376;42.664;23.346;2022-08-25T01:29:23;14.80;;;9.77;;
6679;SDS011;3376;42.664;23.346;2022-08-25T01:31:51;18.00;;;10.07;;
6679;SDS011;3376;42.664;23.346;2022-08-25T01:34:22;20.87;;;9.70;;
6679;SDS011;3376;42.664;23.346;2022-08-25T01:36:50;12.13;;;8.33;;
6679;SDS011;3376;42.664;23.346;2022-08-25T01:39:18;16.37;;;9.60;;
6679;SDS011;3376;42.664;23.346;2022-08-25T01:41:51;18.43;;;9.47;;
6679;SDS011;3376;42.664;23.346;2022-08-25T01:44:24;15.13;;;9.43;;
6679;SDS011;3376;42.664;23.346;2022-08-25T01:46:51;11.53;;;9.47;;
6679;SDS011;3376;42.664;23.346;2022-08-25T01:49:19;18.07;;;10.00;;
6679;SDS011;3376;42.664;23.346;2022-08-25T01:51:46;14.97;;;10.40;;
6679;SDS011;3376;42.664;23.346;2022-08-25T01:54:18;19.40;;;9.50;;
6679;SDS011;3376;42.664;23.346;2022-08-25T01:56:44;18.87;;;9.40;;
6679;SDS011;3376;42.664;23.346;2022-08-25T01:59:13;11.13;;;8.97;;
6679;SDS011;3376;42.664;23.346;2022-08-25T02:01:40;16.73;;;9.87;;
6679;SDS011;3376;42.664;23.346;2022-08-25T02:04:07;14.67;;;9.40;;
6679;SDS011;3376;42.664;23.346;2022-08-25T02:06:34;11.87;;;8.80;;
6679;SDS011;3376;42.664;23.346;2022-08-25T02:09:03;18.50;;;9.67;;
6679;SDS011;3376;42.664;23.346;2022-08-25T02:11:34;16.27;;;9.70;;
6679;SDS011;3376;42.664;23.346;2022-08-25T02:14:02;20.50;;;9.80;;
6679;SDS011;3376;42.664;23.346;2022-08-25T02:16:30;16.73;;;9.60;;
6679;SDS011;3376;42.664;23.346;2022-08-25T02:18:58;13.30;;;9.43;;
6679;SDS011;3376;42.664;23.346;2022-08-25T02:21:26;17.43;;;10.17;;
6679;SDS011;3376;42.664;23.346;2022-08-25T02:23:53;14.80;;;11.27;;
6679;SDS011;3376;42.664;23.346;2022-08-25T02:26:21;13.43;;;9.23;;
6679;SDS011;3376;42.664;23.346;2022-08-25T02:28:50;22.23;;;10.60;;
6679;SDS011;3376;42.664;23.346;2022-08-25T02:31:18;22.17;;;10.13;;
6679;SDS011;3376;42.664;23.346;2022-08-25T02:33:46;14.10;;;9.67;;
6679;SDS011;3376;42.664;23.346;2022-08-25T02:36:13;24.63;;;10.83;;
6679;SDS011;3376;42.664;23.346;2022-08-25T02:38:40;15.37;;;9.23;;
6679;SDS011;3376;42.664;23.346;2022-08-25T02:41:08;18.63;;;9.33;;
6679;SDS011;3376;42.664;23.346;2022-08-25T02:43:38;12.27;;;9.50;;
6679;SDS011;3376;42.664;23.346;2022-08-25T02:46:07;19.63;;;9.90;;
6679;SDS011;3376;42.664;23.346;2022-08-25T02:48:34;20.63;;;9.73;;
6679;SDS011;3376;42.664;23.346;2022-08-25T02:51:02;14.23;;;9.80;;
6679;SDS011;3376;42.664;23.346;2022-08-25T02:53:29;11.70;;;9.40;;
6679;SDS011;3376;42.664;23.346;2022-08-25T02:55:56;15.57;;;9.17;;
6679;SDS011;3376;42.664;23.346;2022-08-25T02:58:23;21.10;;;9.07;;
6679;SDS011;3376;42.664;23.346;2022-08-25T03:00:51;16.70;;;8.77;;
6679;SDS011;3376;42.664;23.346;2022-08-25T03:03:19;18.70;;;9.73;;
6679;SDS011;3376;42.664;23.346;2022-08-25T03:05:46;19.07;;;10.00;;
6679;SDS011;3376;42.664;23.346;2022-08-25T03:08:14;13.07;;;8.87;;
6679;SDS011;3376;42.664;23.346;2022-08-25T03:10:41;14.23;;;9.20;;
6679;SDS011;3376;42.664;23.346;2022-08-25T03:13:08;12.93;;;9.13;;
6679;SDS011;3376;42.664;23.346;2022-08-25T03:15:35;22.57;;;9.43;;
6679;SDS011;3376;42.664;23.346;2022-08-25T03:18:03;20.87;;;9.07;;
6679;SDS011;3376;42.664;23.346;2022-08-25T03:20:32;23.97;;;8.43;;
6679;SDS011;3376;42.664;23.346;2022-08-25T03:23:00;21.93;;;8.90;;
6679;SDS011;3376;42.664;23.346;2022-08-25T03:25:27;19.07;;;9.20;;
6679;SDS011;3376;42.664;23.346;2022-08-25T03:28:14;16.17;;;8.97;;
6679;SDS011;3376;42.664;23.346;2022-08-25T03:30:41;22.20;;;9.17;;
6679;SDS011;3376;42.664;23.346;2022-08-25T03:33:09;14.97;;;9.67;;
6679;SDS011;3376;42.664;23.346;2022-08-25T03:35:37;24.93;;;10.10;;
6679;SDS011;3376;42.664;23.346;2022-08-25T03:38:04;15.40;;;9.53;;
6679;SDS011;3376;42.664;23.346;2022-08-25T03:40:31;16.07;;;9.90;;
6679;SDS011;3376;42.664;23.346;2022-08-25T03:42:58;15.83;;;9.07;;
6679;SDS011;3376;42.664;23.346;2022-08-25T03:45:25;18.07;;;9.20;;
6679;SDS011;3376;42.664;23.346;2022-08-25T03:47:52;23.43;;;10.10;;
6679;SDS011;3376;42.664;23.346;2022-08-25T03:50:19;14.97;;;10.30;;
6679;SDS011;3376;42.664;23.346;2022-08-25T03:52:53;15.83;;;8.43;;
6679;SDS011;3376;42.664;23.346;2022-08-25T03:55:22;20.50;;;10.10;;
6679;SDS011;3376;42.664;23.346;2022-08-25T03:57:50;15.03;;;9.33;;
6679;SDS011;3376;42.664;23.346;2022-08-25T04:00:17;16.33;;;9.43;;
6679;SDS011;3376;42.664;23.346;2022-08-25T04:02:45;12.00;;;8.50;;
6679;SDS011;3376;42.664;23.346;2022-08-25T04:05:12;14.50;;;9.03;;
6679;SDS011;3376;42.664;23.346;2022-08-25T04:07:39;14.37;;;9.60;;
6679;SDS011;3376;42.664;23.346;2022-08-25T04:10:08;15.90;;;8.90;;
6679;SDS011;3376;42.664;23.346;2022-08-25T04:12:36;19.60;;;9.97;;
6679;SDS011;3376;42.664;23.346;2022-08-25T04:15:04;11.50;;;9.93;;
6679;SDS011;3376;42.664;23.346;2022-08-25T04:17:33;20.23;;;9.30;;
6679;SDS011;3376;42.664;23.346;2022-08-25T04:20:03;14.33;;;8.97;;
6679;SDS011;3376;42.664;23.346;2022-08-25T04:22:30;15.13;;;9.30;;
6679;SDS011;3376;42.664;23.346;2022-08-25T04:24:57;15.90;;;9.40;;
6679;SDS011;3376;42.664;23.346;2022-08-25T04:27:26;13.90;;;9.50;;
6679;SDS011;3376;42.664;23.346;2022-08-25T04:29:53;17.97;;;9.50;;
6679;SDS011;3376;42.664;23.346;2022-08-25T04:32:19;11.60;;;9.17;;
6679;SDS011;3376;42.664;23.346;2022-08-25T04:34:46;12.57;;;8.77;;
6679;SDS011;3376;42.664;23.346;2022-08-25T04:37:13;12.97;;;9.60;;
6679;SDS011;3376;42.664;23.346;2022-08-25T04:39:41;18.97;;;9.80;;
6679;SDS011;3376;42.664;23.346;2022-08-25T04:42:07;16.90;;;9.23;;
6679;SDS011;3376;42.664;23.346;2022-08-25T04:44:36;11.00;;;9.87;;
6679;SDS011;3376;42.664;23.346;2022-08-25T04:47:03;14.23;;;8.67;;
6679;SDS011;3376;42.664;23.346;2022-08-25T04:49:30;11.47;;;10.30;;
6679;SDS011;3376;42.664;23.346;2022-08-25T04:51:57;18.77;;;9.67;;
6679;SDS011;3376;42.664;23.346;2022-08-25T04:54:24;12.60;;;9.53;;
6679;SDS011;3376;42.664;23.346;2022-08-25T04:56:52;14.63;;;10.00;;
6679;SDS011;3376;42.664;23.346;2022-08-25T04:59:19;15.00;;;9.83;;
6679;SDS011;3376;42.664;23.346;2022-08-25T05:01:47;17.77;;;9.90;;
6679;SDS011;3376;42.664;23.346;2022-08-25T05:04:15;16.47;;;9.77;;
6679;SDS011;3376;42.664;23.346;2022-08-25T05:06:42;13.57;;;8.63;;
6679;SDS011;3376;42.664;23.346;2022-08-25T05:09:09;14.63;;;9.53;;
6679;SDS011;3376;42.664;23.346;2022-08-25T05:11:36;16.37;;;9.77;;
6679;SDS011;3376;42.664;23.346;2022-08-25T05:14:03;14.30;;;8.80;;
6679;SDS011;3376;42.664;23.346;2022-08-25T05:16:35;12.37;;;9.70;;
6679;SDS011;3376;42.664;23.346;2022-08-25T05:19:03;16.63;;;10.07;;
6679;SDS011;3376;42.664;23.346;2022-08-25T05:21:31;15.87;;;9.63;;
6679;SDS011;3376;42.664;23.346;2022-08-25T05:23:59;10.50;;;9.10;;
6679;SDS011;3376;42.664;23.346;2022-08-25T05:26:27;15.07;;;8.87;;
6679;SDS011;3376;42.664;23.346;2022-08-25T05:28:56;21.93;;;10.63;;
6679;SDS011;3376;42.664;23.346;2022-08-25T05:31:25;20.43;;;10.83;;
6679;SDS011;3376;42.664;23.346;2022-08-25T05:33:52;10.87;;;9.03;;
6679;SDS011;3376;42.664;23.346;2022-08-25T05:36:21;14.63;;;9.53;;
6679;SDS011;3376;42.664;23.346;2022-08-25T05:38:49;23.73;;;10.27;;
6679;SDS011;3376;42.664;23.346;2022-08-25T05:41:17;15.23;;;11.20;;
6679;SDS011;3376;42.664;23.346;2022-08-25T05:43:46;22.87;;;10.73;;
6679;SDS011;3376;42.664;23.346;2022-08-25T05:46:15;24.63;;;10.10;;
6679;SDS011;3376;42.664;23.346;2022-08-25T05:48:43;17.57;;;9.93;;
6679;SDS011;3376;42.664;23.346;2022-08-25T05:51:10;16.73;;;9.43;;
6679;SDS011;3376;42.664;23.346;2022-08-25T05:53:41;25.23;;;10.07;;
6679;SDS011;3376;42.664;23.346;2022-08-25T05:56:09;13.50;;;8.80;;
6679;SDS011;3376;42.664;23.346;2022-08-25T05:58:38;10.87;;;9.23;;
6679;SDS011;3376;42.664;23.346;2022-08-25T06:01:05;16.27;;;8.80;;
6679;SDS011;3376;42.664;23.346;2022-08-25T06:03:50;17.97;;;9.20;;
6679;SDS011;3376;42.664;23.346;2022-08-25T06:06:18;19.33;;;9.60;;
6679;SDS011;3376;42.664;23.346;2022-08-25T06:08:47;12.20;;;9.20;;
6679;SDS011;3376;42.664;23.346;2022-08-25T06:11:14;21.10;;;9.63;;
6679;SDS011;3376;42.664;23.346;2022-08-25T06:13:41;17.17;;;9.40;;
6679;SDS011;3376;42.664;23.346;2022-08-25T06:16:08;13.20;;;9.73;;
6679;SDS011;3376;42.664;23.346;2022-08-25T06:18:35;18.97;;;9.47;;
6679;SDS011;3376;42.664;23.346;2022-08-25T06:21:06;19.57;;;8.80;;
6679;SDS011;3376;42.664;23.346;2022-08-25T06:23:35;12.87;;;9.63;;
6679;SDS011;3376;42.664;23.346;2022-08-25T06:26:04;20.00;;;9.53;;
6679;SDS011;3376;42.664;23.346;2022-08-25T06:28:31;20.73;;;9.17;;
6679;SDS011;3376;42.664;23.346;2022-08-25T06:30:58;19.03;;;9.50;;
6679;SDS011;3376;42.664;23.346;2022-08-25T06:33:26;13.87;;;9.10;;
6679;SDS011;3376;42.664;23.346;2022-08-25T06:35:54;16.10;;;8.43;;
6679;SDS011;3376;42.664;23.346;2022-08-25T06:38:21;19.03;;;9.03;;
6679;SDS011;3376;42.664;23.346;2022-08-25T06:40:49;10.27;;;8.53;;
6679;SDS011;3376;42.664;23.346;2022-08-25T06:43:17;20.30;;;9.90;;
6679;SDS011;3376;42.664;23.346;2022-08-25T06:45:45;13.90;;;9.47;;
6679;SDS011;3376;42.664;23.346;2022-08-25T06:48:12;15.80;;;8.93;;
6679;SDS011;3376;42.664;23.346;2022-08-25T06:50:39;16.05;;;9.48;;
6679;SDS011;3376;42.664;23.346;2022-08-25T06:53:06;18.67;;;8.20;;
6679;SDS011;3376;42.664;23.346;2022-08-25T06:55:33;13.95;;;8.90;;
6679;SDS011;3376;42.664;23.346;2022-08-25T06:58:01;12.30;;;7.72;;
6679;SDS011;3376;42.664;23.346;2022-08-25T07:00:30;15.15;;;9.52;;
6679;SDS011;3376;42.664;23.346;2022-08-25T07:02:57;10.05;;;7.85;;
6679;SDS011;3376;42.664;23.346;2022-08-25T07:05:25;14.05;;;9.05;;
6679;SDS011;3376;42.664;23.346;2022-08-25T07:07:52;16.52;;;8.13;;
6679;SDS011;3376;42.664;23.346;2022-08-25T07:10:19;16.70;;;9.40;;
6679;SDS011;3376;42.664;23.346;2022-08-25T07:12:46;11.13;;;9.27;;
6679;SDS011;3376;42.664;23.346;2022-08-25T07:15:13;29.35;;;10.90;;
6679;SDS011;3376;42.664;23.346;2022-08-25T07:17:41;19.30;;;9.07;;
6679;SDS011;3376;42.664;23.346;2022-08-25T07:20:08;15.88;;;9.38;;
6679;SDS011;3376;42.664;23.346;2022-08-25T07:22:35;16.55;;;8.90;;
6679;SDS011;3376;42.664;23.346;2022-08-25T07:25:02;18.15;;;7.97;;
6679;SDS011;3376;42.664;23.346;2022-08-25T07:27:30;15.48;;;9.05;;
6679;SDS011;3376;42.664;23.346;2022-08-25T07:29:57;14.25;;;8.50;;
6679;SDS011;3376;42.664;23.346;2022-08-25T07:32:24;10.20;;;8.15;;
6679;SDS011;3376;42.664;23.346;2022-08-25T07:34:52;13.95;;;8.63;;
6679;SDS011;3376;42.664;23.346;2022-08-25T07:37:36;13.98;;;8.95;;
6679;SDS011;3376;42.664;23.346;2022-08-25T07:40:05;12.70;;;8.20;;
6679;SDS011;3376;42.664;23.346;2022-08-25T07:42:32;13.80;;;7.45;;
6679;SDS011;3376;42.664;23.346;2022-08-25T07:45:00;17.70;;;8.00;;
6679;SDS011;3376;42.664;23.346;2022-08-25T07:47:28;15.02;;;7.80;;
6679;SDS011;3376;42.664;23.346;2022-08-25T07:49:57;21.73;;;8.30;;
6679;SDS011;3376;42.664;23.346;2022-08-25T07:52:23;19.75;;;7.93;;
6679;SDS011;3376;42.664;23.346;2022-08-25T07:54:50;21.65;;;7.35;;
6679;SDS011;3376;42.664;23.346;2022-08-25T07:57:19;15.40;;;7.30;;
6679;SDS011;3376;42.664;23.346;2022-08-25T07:59:48;11.63;;;7.63;;
6679;SDS011;3376;42.664;23.346;2022-08-25T08:02:15;18.77;;;7.53;;
6679;SDS011;3376;42.664;23.346;2022-08-25T08:04:43;23.02;;;8.63;;
6679;SDS011;3376;42.664;23.346;2022-08-25T08:07:11;10.00;;;6.65;;
6679;SDS011;3376;42.664;23.346;2022-08-25T08:09:41;14.57;;;7.72;;
6679;SDS011;3376;42.664;23.346;2022-08-25T08:12:07;18.60;;;7.45;;
6679;SDS011;3376;42.664;23.346;2022-08-25T08:14:34;23.05;;;7.88;;
6679;SDS011;3376;42.664;23.346;2022-08-25T08:17:03;19.83;;;8.38;;
6679;SDS011;3376;42.664;23.346;2022-08-25T08:19:32;16.83;;;7.55;;
6679;SDS011;3376;42.664;23.346;2022-08-25T08:21:58;23.58;;;7.88;;
6679;SDS011;3376;42.664;23.346;2022-08-25T08:24:29;27.15;;;7.65;;
6679;SDS011;3376;42.664;23.346;2022-08-25T08:26:56;13.27;;;7.45;;
6679;SDS011;3376;42.664;23.346;2022-08-25T08:29:23;19.55;;;7.85;;
6679;SDS011;3376;42.664;23.346;2022-08-25T08:31:50;22.95;;;7.40;;
6679;SDS011;3376;42.664;23.346;2022-08-25T08:34:17;25.70;;;7.78;;
6679;SDS011;3376;42.664;23.346;2022-08-25T08:36:44;22.60;;;8.57;;
6679;SDS011;3376;42.664;23.346;2022-08-25T08:39:11;18.27;;;7.90;;
6679;SDS011;3376;42.664;23.346;2022-08-25T08:44:54;21.23;;;7.63;;
6679;SDS011;3376;42.664;23.346;2022-08-25T08:47:32;20.77;;;7.68;;
6679;SDS011;3376;42.664;23.346;2022-08-25T08:50:10;24.95;;;7.47;;
6679;SDS011;3376;42.664;23.346;2022-08-25T08:52:49;15.15;;;6.50;;
6679;SDS011;3376;42.664;23.346;2022-08-25T08:55:24;13.57;;;6.57;;
6679;SDS011;3376;42.664;23.346;2022-08-25T08:57:58;22.80;;;7.07;;
6679;SDS011;3376;42.664;23.346;2022-08-25T09:00:28;22.83;;;7.28;;
6679;SDS011;3376;42.664;23.346;2022-08-25T09:02:59;31.83;;;6.72;;
6679;SDS011;3376;42.664;23.346;2022-08-25T09:05:30;29.48;;;7.15;;
6679;SDS011;3376;42.664;23.346;2022-08-25T09:08:04;29.58;;;7.47;;
6679;SDS011;3376;42.664;23.346;2022-08-25T09:10:37;17.65;;;6.03;;
6679;SDS011;3376;42.664;23.346;2022-08-25T09:13:17;37.67;;;7.85;;
6679;SDS011;3376;42.664;23.346;2022-08-25T09:15:54;28.95;;;6.55;;
6679;SDS011;3376;42.664;23.346;2022-08-25T09:18:47;22.20;;;6.60;;
6679;SDS011;3376;42.664;23.346;2022-08-25T09:21:23;30.65;;;7.10;;
6679;SDS011;3376;42.664;23.346;2022-08-25T09:24:02;23.90;;;6.50;;
6679;SDS011;3376;42.664;23.346;2022-08-25T09:26:42;17.85;;;5.80;;
6679;SDS011;3376;42.664;23.346;2022-08-25T09:29:17;21.58;;;6.22;;
6679;SDS011;3376;42.664;23.346;2022-08-25T09:31:47;25.25;;;5.38;;
6679;SDS011;3376;42.664;23.346;2022-08-25T09:34:16;27.40;;;7.88;;
6679;SDS011;3376;42.664;23.346;2022-08-25T09:36:44;21.15;;;5.57;;
6679;SDS011;3376;42.664;23.346;2022-08-25T09:39:14;21.90;;;5.80;;
6679;SDS011;3376;42.664;23.346;2022-08-25T09:41:43;22.95;;;5.60;;
6679;SDS011;3376;42.664;23.346;2022-08-25T09:44:17;19.88;;;5.93;;
6679;SDS011;3376;42.664;23.346;2022-08-25T09:46:53;20.70;;;6.07;;
6679;SDS011;3376;42.664;23.346;2022-08-25T09:49:29;30.13;;;6.05;;
6679;SDS011;3376;42.664;23.346;2022-08-25T09:55:13;17.30;;;4.82;;
6679;SDS011;3376;42.664;23.346;2022-08-25T09:57:53;22.33;;;5.57;;
6679;SDS011;3376;42.664;23.346;2022-08-25T10:00:24;17.27;;;4.47;;
6679;SDS011;3376;42.664;23.346;2022-08-25T10:03:00;24.08;;;5.35;;
6679;SDS011;3376;42.664;23.346;2022-08-25T10:05:38;18.77;;;4.65;;
6679;SDS011;3376;42.664;23.346;2022-08-25T10:08:25;11.32;;;4.18;;
6679;SDS011;3376;42.664;23.346;2022-08-25T10:10:57;16.15;;;4.53;;
6679;SDS011;3376;42.664;23.346;2022-08-25T10:13:32;36.50;;;5.47;;
6679;SDS011;3376;42.664;23.346;2022-08-25T10:16:08;27.92;;;6.72;;
6679;SDS011;3376;42.664;23.346;2022-08-25T10:18:37;23.50;;;5.50;;
6679;SDS011;3376;42.664;23.346;2022-08-25T10:21:09;35.10;;;5.15;;
6679;SDS011;3376;42.664;23.346;2022-08-25T10:23:39;14.05;;;4.57;;
6679;SDS011;3376;42.664;23.346;2022-08-25T10:26:10;34.08;;;4.95;;
6679;SDS011;3376;42.664;23.346;2022-08-25T10:28:47;25.83;;;5.70;;
6679;SDS011;3376;42.664;23.346;2022-08-25T10:31:23;25.10;;;4.90;;
6679;SDS011;3376;42.664;23.346;2022-08-25T10:33:58;21.73;;;4.70;;
6679;SDS011;3376;42.664;23.346;2022-08-25T10:36:41;19.50;;;4.32;;
6679;SDS011;3376;42.664;23.346;2022-08-25T10:39:16;20.30;;;4.57;;
6679;SDS011;3376;42.664;23.346;2022-08-25T10:41:57;18.52;;;4.63;;
6679;SDS011;3376;42.664;23.346;2022-08-25T10:44:30;25.83;;;4.47;;
6679;SDS011;3376;42.664;23.346;2022-08-25T10:47:36;28.30;;;4.97;;
6679;SDS011;3376;42.664;23.346;2022-08-25T10:50:12;21.95;;;4.13;;
6679;SDS011;3376;42.664;23.346;2022-08-25T10:53:07;17.38;;;4.72;;
6679;SDS011;3376;42.664;23.346;2022-08-25T10:55:46;17.58;;;4.65;;
6679;SDS011;3376;42.664;23.346;2022-08-25T10:58:23;16.15;;;4.43;;
6679;SDS011;3376;42.664;23.346;2022-08-25T11:00:58;22.48;;;5.15;;
6679;SDS011;3376;42.664;23.346;2022-08-25T11:03:40;19.05;;;5.03;;
6679;SDS011;3376;42.664;23.346;2022-08-25T11:06:13;24.33;;;4.20;;
6679;SDS011;3376;42.664;23.346;2022-08-25T11:08:46;19.13;;;4.35;;
6679;SDS011;3376;42.664;23.346;2022-08-25T11:11:19;18.83;;;4.00;;
6679;SDS011;3376;42.664;23.346;2022-08-25T11:13:52;19.55;;;4.88;;
6679;SDS011;3376;42.664;23.346;2022-08-25T11:16:26;27.30;;;4.72;;
6679;SDS011;3376;42.664;23.346;2022-08-25T11:19:04;10.52;;;3.67;;
6679;SDS011;3376;42.664;23.346;2022-08-25T11:21:41;14.98;;;4.97;;
6679;SDS011;3376;42.664;23.346;2022-08-25T11:24:21;12.40;;;4.78;;
6679;SDS011;3376;42.664;23.346;2022-08-25T11:26:57;12.85;;;4.43;;
6679;SDS011;3376;42.664;23.346;2022-08-25T11:29:27;22.17;;;4.53;;
6679;SDS011;3376;42.664;23.346;2022-08-25T11:31:58;17.13;;;4.65;;
6679;SDS011;3376;42.664;23.346;2022-08-25T11:34:28;26.38;;;5.38;;
6679;SDS011;3376;42.664;23.346;2022-08-25T11:36:58;22.10;;;4.45;;
6679;SDS011;3376;42.664;23.346;2022-08-25T11:42:37;20.48;;;4.57;;
6679;SDS011;3376;42.664;23.346;2022-08-25T11:45:19;20.15;;;4.43;;
6679;SDS011;3376;42.664;23.346;2022-08-25T11:48:08;21.15;;;5.20;;
6679;SDS011;3376;42.664;23.346;2022-08-25T11:50:55;20.25;;;5.50;;
6679;SDS011;3376;42.664;23.346;2022-08-25T11:53:26;20.05;;;4.63;;
6679;SDS011;3376;42.664;23.346;2022-08-25T11:55:55;18.52;;;5.00;;
6679;SDS011;3376;42.664;23.346;2022-08-25T12:04:30;12.48;;;4.13;;
6679;SDS011;3376;42.664;23.346;2022-08-25T12:07:16;15.30;;;4.47;;
6679;SDS011;3376;42.664;23.346;2022-08-25T12:10:07;11.45;;;3.78;;
6679;SDS011;3376;42.664;23.346;2022-08-25T12:18:41;14.32;;;4.35;;
6679;SDS011;3376;42.664;23.346;2022-08-25T12:21:27;16.83;;;4.10;;
6679;SDS011;3376;42.664;23.346;2022-08-25T12:24:08;11.70;;;4.18;;
6679;SDS011;3376;42.664;23.346;2022-08-25T12:26:40;23.77;;;4.43;;
6679;SDS011;3376;42.664;23.346;2022-08-25T12:29:14;17.38;;;4.63;;
6679;SDS011;3376;42.664;23.346;2022-08-25T12:31:50;16.15;;;4.55;;
6679;SDS011;3376;42.664;23.346;2022-08-25T12:34:32;12.80;;;3.90;;
6679;SDS011;3376;42.664;23.346;2022-08-25T12:37:15;22.23;;;4.18;;
6679;SDS011;3376;42.664;23.346;2022-08-25T12:39:51;20.10;;;3.67;;
6679;SDS011;3376;42.664;23.346;2022-08-25T12:42:27;16.85;;;4.25;;
6679;SDS011;3376;42.664;23.346;2022-08-25T12:45:11;14.27;;;3.70;;
6679;SDS011;3376;42.664;23.346;2022-08-25T12:47:57;16.05;;;4.13;;
6679;SDS011;3376;42.664;23.346;2022-08-25T12:51:07;10.40;;;3.67;;
6679;SDS011;3376;42.664;23.346;2022-08-25T12:53:42;9.77;;;3.67;;
6679;SDS011;3376;42.664;23.346;2022-08-25T12:56:18;12.73;;;3.80;;
6679;SDS011;3376;42.664;23.346;2022-08-25T12:58:52;13.02;;;4.57;;
6679;SDS011;3376;42.664;23.346;2022-08-25T13:01:31;14.45;;;4.00;;
6679;SDS011;3376;42.664;23.346;2022-08-25T13:04:19;11.70;;;4.40;;
6679;SDS011;3376;42.664;23.346;2022-08-25T13:07:12;14.85;;;4.70;;
6679;SDS011;3376;42.664;23.346;2022-08-25T13:09:59;16.52;;;4.25;;
6679;SDS011;3376;42.664;23.346;2022-08-25T13:12:46;13.02;;;4.18;;
6679;SDS011;3376;42.664;23.346;2022-08-25T13:15:26;20.88;;;4.30;;
6679;SDS011;3376;42.664;23.346;2022-08-25T13:18:15;14.55;;;4.13;;
6679;SDS011;3376;42.664;23.346;2022-08-25T13:20:45;9.88;;;3.45;;
6679;SDS011;3376;42.664;23.346;2022-08-25T13:23:15;20.85;;;4.38;;
6679;SDS011;3376;42.664;23.346;2022-08-25T13:25:46;20.55;;;4.28;;
6679;SDS011;3376;42.664;23.346;2022-08-25T13:28:21;11.63;;;3.65;;
6679;SDS011;3376;42.664;23.346;2022-08-25T13:33:48;15.13;;;3.67;;
6679;SDS011;3376;42.664;23.346;2022-08-25T13:36:16;13.65;;;4.50;;
6679;SDS011;3376;42.664;23.346;2022-08-25T13:39:09;12.02;;;3.88;;
6679;SDS011;3376;42.664;23.346;2022-08-25T13:41:42;8.90;;;4.15;;
6679;SDS011;3376;42.664;23.346;2022-08-25T13:44:12;14.77;;;4.78;;
6679;SDS011;3376;42.664;23.346;2022-08-25T13:46:39;16.23;;;4.43;;
6679;SDS011;3376;42.664;23.346;2022-08-25T13:49:07;14.45;;;4.25;;
6679;SDS011;3376;42.664;23.346;2022-08-25T13:51:35;15.52;;;4.65;;
6679;SDS011;3376;42.664;23.346;2022-08-25T13:54:03;18.25;;;4.25;;
6679;SDS011;3376;42.664;23.346;2022-08-25T13:56:33;18.42;;;4.57;;
6679;SDS011;3376;42.664;23.346;2022-08-25T13:59:03;16.50;;;3.90;;
6679;SDS011;3376;42.664;23.346;2022-08-25T14:01:34;13.70;;;4.70;;
6679;SDS011;3376;42.664;23.346;2022-08-25T14:04:21;14.02;;;4.03;;
6679;SDS011;3376;42.664;23.346;2022-08-25T14:07:13;13.43;;;4.05;;
6679;SDS011;3376;42.664;23.346;2022-08-25T14:09:51;20.30;;;4.32;;
6679;SDS011;3376;42.664;23.346;2022-08-25T14:12:27;16.25;;;4.63;;
6679;SDS011;3376;42.664;23.346;2022-08-25T14:14:56;12.10;;;3.80;;
6679;SDS011;3376;42.664;23.346;2022-08-25T14:17:26;16.45;;;4.05;;
6679;SDS011;3376;42.664;23.346;2022-08-25T14:19:53;21.58;;;4.57;;
6679;SDS011;3376;42.664;23.346;2022-08-25T14:22:20;14.05;;;4.35;;
6679;SDS011;3376;42.664;23.346;2022-08-25T14:24:47;9.52;;;3.63;;
6679;SDS011;3376;42.664;23.346;2022-08-25T14:27:14;13.00;;;3.75;;
6679;SDS011;3376;42.664;23.346;2022-08-25T14:29:42;16.83;;;3.90;;
6679;SDS011;3376;42.664;23.346;2022-08-25T14:32:10;17.30;;;4.32;;
6679;SDS011;3376;42.664;23.346;2022-08-25T14:34:40;15.95;;;3.95;;
6679;SDS011;3376;42.664;23.346;2022-08-25T14:37:09;8.32;;;2.92;;
6679;SDS011;3376;42.664;23.346;2022-08-25T14:39:39;14.20;;;3.88;;
6679;SDS011;3376;42.664;23.346;2022-08-25T14:42:06;20.05;;;4.40;;
6679;SDS011;3376;42.664;23.346;2022-08-25T14:44:33;18.23;;;4.40;;
6679;SDS011;3376;42.664;23.346;2022-08-25T14:47:00;17.83;;;4.35;;
6679;SDS011;3376;42.664;23.346;2022-08-25T14:49:28;14.52;;;3.90;;
6679;SDS011;3376;42.664;23.346;2022-08-25T14:52:00;22.23;;;4.45;;
6679;SDS011;3376;42.664;23.346;2022-08-25T14:54:33;18.88;;;4.65;;
6679;SDS011;3376;42.664;23.346;2022-08-25T14:57:00;15.57;;;3.80;;
6679;SDS011;3376;42.664;23.346;2022-08-25T14:59:26;24.95;;;4.07;;
6679;SDS011;3376;42.664;23.346;2022-08-25T15:01:54;14.90;;;4.50;;
6679;SDS011;3376;42.664;23.346;2022-08-25T15:04:22;11.75;;;3.92;;
6679;SDS011;3376;42.664;23.346;2022-08-25T15:06:53;12.52;;;3.63;;
6679;SDS011;3376;42.664;23.346;2022-08-25T15:09:23;12.90;;;3.65;;
6679;SDS011;3376;42.664;23.346;2022-08-25T15:11:51;18.27;;;4.45;;
6679;SDS011;3376;42.664;23.346;2022-08-25T15:14:19;14.43;;;4.25;;
6679;SDS011;3376;42.664;23.346;2022-08-25T15:16:49;16.50;;;4.60;;
6679;SDS011;3376;42.664;23.346;2022-08-25T15:19:18;20.13;;;4.47;;
6679;SDS011;3376;42.664;23.346;2022-08-25T15:21:46;13.68;;;4.05;;
6679;SDS011;3376;42.664;23.346;2022-08-25T15:24:14;11.68;;;4.85;;
6679;SDS011;3376;42.664;23.346;2022-08-25T15:26:44;13.52;;;4.10;;
6679;SDS011;3376;42.664;23.346;2022-08-25T15:29:15;15.95;;;3.65;;
6679;SDS011;3376;42.664;23.346;2022-08-25T15:31:42;16.33;;;4.60;;